createdAt,value
2019-04-16T00:00:00.193Z,97543.24
2019-04-16T00:01:13.921Z,97541.48
2019-04-16T00:02:36.755Z,97543.02
2019-04-16T00:03:42.014Z,97538.94
2019-04-16T00:04:59.543Z,97532.33
2019-04-16T00:06:16.802Z,97536.22
2019-04-16T00:07:38.576Z,97535.14
2019-04-16T00:08:43.865Z,97529.31
2019-04-16T00:10:07.495Z,97533.00
2019-04-16T00:11:12.772Z,97530.29
2019-04-16T00:12:24.233Z,97530.76
2019-04-16T00:13:29.888Z,97538.02
2019-04-16T00:14:37.807Z,97537.22
2019-04-16T00:15:42.106Z,97539.08
2019-04-16T00:16:45.829Z,97538.54
2019-04-16T00:17:49.467Z,97542.44
2019-04-16T00:18:57.988Z,97542.44
2019-04-16T00:19:58.517Z,97540.59
2019-04-16T00:21:10.045Z,97540.59
2019-04-16T00:22:13.588Z,97540.01
2019-04-16T00:23:28.385Z,97540.70
2019-04-16T00:24:33.639Z,97539.37
2019-04-16T00:25:37.561Z,97539.87
2019-04-16T00:26:41.208Z,97538.54
2019-04-16T00:27:44.835Z,97537.99
2019-04-16T00:28:48.460Z,97532.94
2019-04-16T00:29:52.139Z,97535.59
2019-04-16T00:30:55.845Z,97538.77
2019-04-16T00:32:00.602Z,97537.21
2019-04-16T00:33:04.248Z,97531.17
2019-04-16T00:34:07.838Z,97538.11
2019-04-16T00:35:15.411Z,97531.28
2019-04-16T00:36:18.142Z,97528.71
2019-04-16T00:37:22.352Z,97530.77
2019-04-16T00:38:26.004Z,97531.03
2019-04-16T00:39:29.658Z,97534.68
2019-04-16T00:40:33.294Z,97535.19
2019-04-16T00:41:36.926Z,97535.69
2019-04-16T00:42:40.561Z,97532.84
2019-04-16T00:43:44.329Z,97533.00
2019-04-16T00:44:48.013Z,97535.05
2019-04-16T00:45:51.672Z,97538.59
2019-04-16T00:46:55.312Z,97539.96
2019-04-16T00:47:58.935Z,97537.00
2019-04-16T00:49:02.563Z,97538.63
2019-04-16T00:50:07.415Z,97534.94
2019-04-16T00:51:11.047Z,97539.17
2019-04-16T00:52:14.699Z,97533.83
2019-04-16T00:53:18.280Z,97537.40
2019-04-16T00:54:21.931Z,97537.72
2019-04-16T00:55:25.572Z,97533.56
2019-04-16T00:56:29.601Z,97532.42
2019-04-16T00:57:33.239Z,97530.69
2019-04-16T00:58:37.303Z,97532.95
2019-04-16T00:59:40.961Z,97534.00
2019-04-16T01:00:44.843Z,97536.34
2019-04-16T01:01:48.839Z,97540.58
2019-04-16T01:02:52.873Z,97539.59
2019-04-16T01:03:56.519Z,97537.02
2019-04-16T01:05:00.149Z,97533.42
2019-04-16T01:06:07.012Z,97536.11
2019-04-16T01:07:09.291Z,97537.67
2019-04-16T01:08:12.937Z,97537.06
2019-04-16T01:09:16.636Z,97541.25
2019-04-16T01:10:20.264Z,97533.24
2019-04-16T01:11:23.905Z,97531.69
2019-04-16T01:12:27.568Z,97538.91
2019-04-16T01:13:31.282Z,97535.19
2019-04-16T01:14:35.361Z,97538.02
2019-04-16T01:15:38.995Z,97536.37
2019-04-16T01:16:42.545Z,97538.25
2019-04-16T01:17:46.175Z,97542.99
2019-04-16T01:18:49.754Z,97541.47
2019-04-16T01:19:53.850Z,97542.39
2019-04-16T01:20:57.498Z,97544.36
2019-04-16T01:22:01.035Z,97547.34
2019-04-16T01:23:04.685Z,97549.34
2019-04-16T01:24:08.259Z,97545.82
2019-04-16T01:25:11.911Z,97547.09
2019-04-16T01:26:15.558Z,97547.88
2019-04-16T01:27:20.757Z,97551.28
2019-04-16T01:28:42.274Z,97545.41
2019-04-16T01:29:45.894Z,97543.81
2019-04-16T01:30:51.485Z,97545.56
2019-04-16T01:31:56.756Z,97542.48
2019-04-16T01:33:19.988Z,97544.87
2019-04-16T01:34:40.209Z,97540.30
2019-04-16T01:35:51.611Z,97540.52
2019-04-16T01:37:13.759Z,97538.89
2019-04-16T01:38:21.545Z,97539.71
2019-04-16T01:39:35.795Z,97544.27
2019-04-16T01:40:43.868Z,97542.76
2019-04-16T01:41:50.331Z,97547.89
2019-04-16T01:42:54.719Z,97546.42
2019-04-16T01:43:58.690Z,97543.35
2019-04-16T01:45:02.270Z,97543.48
2019-04-16T01:46:05.934Z,97547.66
2019-04-16T01:47:09.567Z,97542.00
2019-04-16T01:48:13.212Z,97541.91
2019-04-16T01:49:16.854Z,97543.15
2019-04-16T01:50:20.496Z,97534.98
2019-04-16T01:51:24.168Z,97541.84
2019-04-16T01:52:27.816Z,97536.03
2019-04-16T01:53:31.467Z,97530.48
2019-04-16T01:54:35.126Z,97536.48
2019-04-16T01:55:38.767Z,97532.66
2019-04-16T01:56:42.389Z,97533.25
2019-04-16T01:57:46.026Z,97541.03
2019-04-16T01:58:49.652Z,97540.43
2019-04-16T01:59:53.285Z,97537.93
2019-04-16T02:00:56.936Z,97543.16
2019-04-16T02:02:00.576Z,97546.52
2019-04-16T02:03:04.233Z,97535.69
2019-04-16T02:04:07.849Z,97541.69
2019-04-16T02:05:11.714Z,97544.52
2019-04-16T02:06:15.328Z,97541.77
2019-04-16T02:07:18.989Z,97539.02
2019-04-16T02:08:22.567Z,97543.75
2019-04-16T02:09:26.291Z,97537.34
2019-04-16T02:10:29.931Z,97540.77
2019-04-16T02:11:33.789Z,97545.51
2019-04-16T02:12:37.573Z,97543.83
2019-04-16T02:13:45.775Z,97547.02
2019-04-16T02:14:47.315Z,97550.36
2019-04-16T02:15:53.331Z,97557.61
2019-04-16T02:16:57.338Z,97560.04
2019-04-16T02:18:00.964Z,97555.67
2019-04-16T02:19:04.625Z,97554.52
2019-04-16T02:20:08.730Z,97557.05
2019-04-16T02:21:12.392Z,97555.82
2019-04-16T02:22:16.352Z,97558.92
2019-04-16T02:23:19.979Z,97554.34
2019-04-16T02:24:23.622Z,97558.00
2019-04-16T02:25:27.269Z,97546.77
2019-04-16T02:26:30.912Z,97554.72
2019-04-16T02:27:34.608Z,97548.25
2019-04-16T02:28:38.244Z,97547.72
2019-04-16T02:29:41.871Z,97550.70
2019-04-16T02:30:45.511Z,97549.92
2019-04-16T02:31:51.599Z,97552.19
2019-04-16T02:32:55.390Z,97552.19
2019-04-16T02:33:59.099Z,97551.41
2019-04-16T02:35:02.753Z,97548.38
2019-04-16T02:36:06.636Z,97544.00
2019-04-16T02:37:10.424Z,97553.94
2019-04-16T02:38:14.481Z,97547.53
2019-04-16T02:39:18.132Z,97548.80
2019-04-16T02:40:21.754Z,97547.36
2019-04-16T02:41:25.398Z,97549.11
2019-04-16T02:42:31.886Z,97551.23
2019-04-16T02:43:39.436Z,97557.02
2019-04-16T02:44:39.822Z,97552.41
2019-04-16T02:45:43.530Z,97559.05
2019-04-16T02:46:47.175Z,97546.75
2019-04-16T02:47:50.804Z,97558.66
2019-04-16T02:48:54.904Z,97551.19
2019-04-16T02:49:59.723Z,97557.13
2019-04-16T02:51:11.331Z,97552.06
2019-04-16T02:52:17.342Z,97552.14
2019-04-16T02:53:35.380Z,97549.88
2019-04-16T02:54:46.431Z,97549.86
2019-04-16T02:56:17.393Z,97553.52
2019-04-16T02:57:25.853Z,97552.12
2019-04-16T02:58:33.953Z,97543.20
2019-04-16T02:59:37.055Z,97549.13
2019-04-16T03:00:42.626Z,97549.61
2019-04-16T03:02:00.350Z,97550.27
2019-04-16T03:03:14.723Z,97556.15
2019-04-16T03:04:20.057Z,97551.20
2019-04-16T03:05:26.512Z,97552.86
2019-04-16T03:06:31.991Z,97551.45
2019-04-16T03:07:36.177Z,97553.34
2019-04-16T03:08:39.955Z,97551.27
2019-04-16T03:09:43.948Z,97554.25
2019-04-16T03:10:50.320Z,97555.00
2019-04-16T03:11:53.981Z,97555.64
2019-04-16T03:13:00.657Z,97554.11
2019-04-16T03:14:04.398Z,97554.92
2019-04-16T03:15:08.440Z,97552.80
2019-04-16T03:16:19.460Z,97552.91
2019-04-16T03:17:27.737Z,97551.83
2019-04-16T03:18:33.014Z,97560.89
2019-04-16T03:19:39.047Z,97557.47
2019-04-16T03:20:42.803Z,97555.19
2019-04-16T03:21:46.437Z,97557.69
2019-04-16T03:22:50.140Z,97561.78
2019-04-16T03:23:53.761Z,97566.61
2019-04-16T03:24:57.403Z,97566.40
2019-04-16T03:26:01.041Z,97565.08
2019-04-16T03:27:05.558Z,97563.27
2019-04-16T03:28:09.431Z,97570.75
2019-04-16T03:29:13.297Z,97568.67
2019-04-16T03:30:17.672Z,97564.42
2019-04-16T03:31:23.459Z,97566.01
2019-04-16T03:32:33.640Z,97565.17
2019-04-16T03:33:32.192Z,97568.09
2019-04-16T03:34:35.850Z,97570.00
2019-04-16T03:35:39.629Z,97566.33
2019-04-16T03:36:43.260Z,97561.90
2019-04-16T03:37:47.007Z,97562.97
2019-04-16T03:38:50.701Z,97566.45
2019-04-16T03:39:54.315Z,97564.11
2019-04-16T03:40:57.950Z,97571.81
2019-04-16T03:42:01.575Z,97568.92
2019-04-16T03:43:05.619Z,97572.39
2019-04-16T03:44:09.841Z,97568.92
2019-04-16T03:45:13.549Z,97573.91
2019-04-16T03:46:17.189Z,97573.94
2019-04-16T03:47:20.835Z,97579.59
2019-04-16T03:48:24.541Z,97580.96
2019-04-16T03:49:31.238Z,97575.95
2019-04-16T03:50:34.906Z,97585.52
2019-04-16T03:51:38.553Z,97583.92
2019-04-16T03:52:45.486Z,97586.58
2019-04-16T03:53:49.550Z,97592.42
2019-04-16T03:54:54.074Z,97595.38
2019-04-16T03:55:59.067Z,97594.58
2019-04-16T03:57:02.911Z,97593.52
2019-04-16T03:58:07.326Z,97594.81
2019-04-16T03:59:12.343Z,97596.07
2019-04-16T04:00:18.090Z,97593.64
2019-04-16T04:01:21.774Z,97600.29
2019-04-16T04:02:25.398Z,97597.93
2019-04-16T04:03:29.036Z,97593.98
2019-04-16T04:04:32.672Z,97602.75
2019-04-16T04:05:36.549Z,97602.78
2019-04-16T04:06:40.712Z,97608.93
2019-04-16T04:07:48.288Z,97606.23
2019-04-16T04:08:53.268Z,97605.17
2019-04-16T04:09:58.730Z,97600.33
2019-04-16T04:11:02.472Z,97608.80
2019-04-16T04:12:06.129Z,97606.09
2019-04-16T04:13:10.069Z,97608.23
2019-04-16T04:14:13.702Z,97614.07
2019-04-16T04:15:17.892Z,97606.86
2019-04-16T04:16:21.616Z,97612.97
2019-04-16T04:17:25.275Z,97612.44
2019-04-16T04:18:29.289Z,97614.30
2019-04-16T04:19:32.918Z,97611.03
2019-04-16T04:20:39.949Z,97618.25
2019-04-16T04:21:43.584Z,97615.89
2019-04-16T04:22:47.192Z,97619.12
2019-04-16T04:23:51.237Z,97613.05
2019-04-16T04:24:54.891Z,97613.58
2019-04-16T04:25:58.468Z,97620.48
2019-04-16T04:27:02.465Z,97618.02
2019-04-16T04:28:06.626Z,97621.41
2019-04-16T04:29:10.452Z,97617.45
2019-04-16T04:30:15.357Z,97617.76
2019-04-16T04:31:21.975Z,97626.56
2019-04-16T04:32:25.621Z,97621.52
2019-04-16T04:33:40.855Z,97627.85
2019-04-16T04:34:41.578Z,97624.63
2019-04-16T04:35:45.257Z,97621.97
2019-04-16T04:36:49.292Z,97625.61
2019-04-16T04:37:53.051Z,97624.52
2019-04-16T04:38:56.840Z,97622.92
2019-04-16T04:40:00.473Z,97627.44
2019-04-16T04:41:04.136Z,97624.52
2019-04-16T04:42:07.794Z,97625.80
2019-04-16T04:43:11.458Z,97626.02
2019-04-16T04:44:15.103Z,97631.60
2019-04-16T04:45:18.812Z,97634.76
2019-04-16T04:46:22.508Z,97625.76
2019-04-16T04:47:26.171Z,97637.46
2019-04-16T04:48:29.807Z,97631.91
2019-04-16T04:49:33.672Z,97631.11
2019-04-16T04:50:37.363Z,97634.58
2019-04-16T04:51:43.520Z,97630.58
2019-04-16T04:52:46.837Z,97635.37
2019-04-16T04:53:51.374Z,97636.39
2019-04-16T04:54:55.178Z,97637.68
2019-04-16T04:55:58.830Z,97638.38
2019-04-16T04:57:02.423Z,97634.66
2019-04-16T04:58:06.058Z,97633.87
2019-04-16T04:59:09.690Z,97636.48
2019-04-16T05:00:14.009Z,97638.61
2019-04-16T05:01:17.783Z,97645.27
2019-04-16T05:02:21.468Z,97644.28
2019-04-16T05:03:38.703Z,97641.36
2019-04-16T05:04:56.287Z,97644.41
2019-04-16T05:06:01.587Z,97647.69
2019-04-16T05:07:09.345Z,97646.50
2019-04-16T05:08:13.345Z,97646.16
2019-04-16T05:09:16.989Z,97644.67
2019-04-16T05:10:20.633Z,97646.05
2019-04-16T05:11:24.305Z,97648.34
2019-04-16T05:12:27.945Z,97649.42
2019-04-16T05:13:31.578Z,97648.24
2019-04-16T05:14:36.799Z,97646.22
2019-04-16T05:15:40.428Z,97652.70
2019-04-16T05:16:44.097Z,97647.70
2019-04-16T05:17:47.745Z,97647.55
2019-04-16T05:18:51.346Z,97649.47
2019-04-16T05:19:55.300Z,97646.05
2019-04-16T05:20:58.878Z,97652.13
2019-04-16T05:22:02.583Z,97651.02
2019-04-16T05:23:06.244Z,97650.63
2019-04-16T05:24:09.900Z,97654.84
2019-04-16T05:25:13.644Z,97652.50
2019-04-16T05:26:17.662Z,97654.14
2019-04-16T05:27:21.344Z,97650.38
2019-04-16T05:28:24.933Z,97651.92
2019-04-16T05:29:29.086Z,97651.80
2019-04-16T05:30:32.723Z,97658.66
2019-04-16T05:31:36.398Z,97655.59
2019-04-16T05:32:40.091Z,97661.18
2019-04-16T05:33:43.797Z,97658.66
2019-04-16T05:34:47.453Z,97660.14
2019-04-16T05:35:51.413Z,97662.28
2019-04-16T05:36:55.071Z,97664.52
2019-04-16T05:37:58.678Z,97664.25
2019-04-16T05:39:03.763Z,97664.86
2019-04-16T05:40:07.783Z,97661.72
2019-04-16T05:41:13.492Z,97668.10
2019-04-16T05:42:16.762Z,97662.08
2019-04-16T05:43:22.599Z,97663.55
2019-04-16T05:44:25.785Z,97663.88
2019-04-16T05:45:29.442Z,97667.13
2019-04-16T05:46:33.032Z,97655.42
2019-04-16T05:47:36.658Z,97667.06
2019-04-16T05:48:40.426Z,97670.00
2019-04-16T05:49:44.086Z,97668.68
2019-04-16T05:50:47.827Z,97666.80
2019-04-16T05:51:51.829Z,97678.84
2019-04-16T05:52:55.666Z,97675.38
2019-04-16T05:54:01.040Z,97677.83
2019-04-16T05:55:20.391Z,97676.45
2019-04-16T05:56:31.721Z,97671.42
2019-04-16T05:57:36.995Z,97673.30
2019-04-16T05:58:40.635Z,97669.83
2019-04-16T05:59:44.330Z,97670.09
2019-04-16T06:00:49.605Z,97670.80
2019-04-16T06:01:57.319Z,97672.00
2019-04-16T06:03:00.275Z,97671.34
2019-04-16T06:04:03.921Z,97670.33
2019-04-16T06:05:08.008Z,97669.34
2019-04-16T06:06:11.636Z,97669.70
2019-04-16T06:07:15.295Z,97669.16
2019-04-16T06:08:19.179Z,97674.69
2019-04-16T06:09:22.776Z,97673.19
2019-04-16T06:10:26.465Z,97669.27
2019-04-16T06:11:35.679Z,97662.68
2019-04-16T06:12:39.651Z,97660.03
2019-04-16T06:13:45.150Z,97665.05
2019-04-16T06:14:54.036Z,97662.16
2019-04-16T06:15:59.478Z,97657.69
2019-04-16T06:17:21.138Z,97665.15
2019-04-16T06:18:41.426Z,97659.63
2019-04-16T06:20:02.817Z,97657.86
2019-04-16T06:21:25.790Z,97662.77
2019-04-16T06:22:30.220Z,97664.87
2019-04-16T06:23:44.520Z,97661.08
2019-04-16T06:24:49.812Z,97663.80
2019-04-16T06:25:55.022Z,97665.88
2019-04-16T06:27:03.252Z,97668.42
2019-04-16T06:28:08.597Z,97661.75
2019-04-16T06:29:13.870Z,97663.34
2019-04-16T06:30:34.177Z,97669.18
2019-04-16T06:31:55.876Z,97661.50
2019-04-16T06:33:01.086Z,97669.13
2019-04-16T06:34:06.493Z,97666.53
2019-04-16T06:35:23.364Z,97664.00
2019-04-16T06:36:31.255Z,97661.33
2019-04-16T06:37:54.735Z,97662.81
2019-04-16T06:39:08.899Z,97659.48
2019-04-16T06:40:14.315Z,97668.30
2019-04-16T06:41:41.168Z,97667.59
2019-04-16T06:42:38.915Z,97666.53
2019-04-16T06:43:44.138Z,97662.02
2019-04-16T06:44:55.387Z,97662.15
2019-04-16T06:46:16.004Z,97662.15
2019-04-16T06:47:41.851Z,97661.05
2019-04-16T06:48:50.380Z,97654.20
2019-04-16T06:49:55.854Z,97658.27
2019-04-16T06:51:01.449Z,97660.87
2019-04-16T06:52:22.735Z,97655.06
2019-04-16T06:53:30.248Z,97655.06
2019-04-16T06:54:41.004Z,97660.59
2019-04-16T06:55:51.858Z,97660.59
2019-04-16T06:57:15.467Z,97666.06
2019-04-16T06:58:20.742Z,97658.80
2019-04-16T06:59:35.628Z,97656.11
2019-04-16T07:00:40.919Z,97656.11
2019-04-16T07:02:04.140Z,97657.84
2019-04-16T07:03:18.918Z,97658.41
2019-04-16T07:04:24.212Z,97658.41
2019-04-16T07:05:33.003Z,97649.80
2019-04-16T07:06:45.768Z,97653.55
2019-04-16T07:08:07.634Z,97651.61
2019-04-16T07:09:16.185Z,97653.17
2019-04-16T07:10:21.503Z,97607.07
2019-04-16T07:11:27.065Z,97647.27
2019-04-16T07:12:30.741Z,97646.96
2019-04-16T07:13:34.392Z,97645.02
2019-04-16T07:14:38.055Z,97645.50
2019-04-16T07:15:42.200Z,97642.27
2019-04-16T07:16:46.078Z,97644.16
2019-04-16T07:17:49.716Z,97641.98
2019-04-16T07:18:53.284Z,97637.30
2019-04-16T07:19:56.914Z,97641.77
2019-04-16T07:21:00.586Z,97637.58
2019-04-16T07:22:04.593Z,97642.87
2019-04-16T07:23:08.238Z,97636.47
2019-04-16T07:24:11.948Z,97637.30
2019-04-16T07:25:16.255Z,97638.75
2019-04-16T07:26:20.339Z,97617.83
2019-04-16T07:27:23.978Z,97642.25
2019-04-16T07:28:35.163Z,97640.05
2019-04-16T07:29:40.596Z,97641.22
2019-04-16T07:30:48.669Z,97634.33
2019-04-16T07:31:57.094Z,97636.25
2019-04-16T07:33:11.087Z,97642.69
2019-04-16T07:34:31.329Z,97642.69
2019-04-16T07:35:36.792Z,97639.78
2019-04-16T07:37:00.460Z,97636.17
2019-04-16T07:38:21.885Z,97638.02
2019-04-16T07:39:29.173Z,97639.27
2019-04-16T07:40:39.787Z,97639.50
2019-04-16T07:43:16.126Z,97643.23
2019-04-16T07:43:47.126Z,97633.55
2019-04-16T07:44:27.291Z,97635.52
2019-04-16T07:45:50.975Z,97629.97
2019-04-16T07:46:56.318Z,97629.28
2019-04-16T07:48:13.572Z,97626.95
2019-04-16T07:49:27.740Z,97624.96
2019-04-16T07:50:49.231Z,97623.96
2019-04-16T07:52:12.874Z,97622.44
2019-04-16T07:53:33.390Z,97625.78
2019-04-16T07:54:54.567Z,97620.81
2019-04-16T07:56:02.533Z,97621.48
2019-04-16T07:57:06.183Z,97616.48
2019-04-16T07:58:09.843Z,97615.56
2019-04-16T07:59:13.488Z,97615.78
2019-04-16T08:00:17.307Z,97616.63
2019-04-16T08:01:20.981Z,97620.36
2019-04-16T08:02:24.605Z,97619.85
2019-04-16T08:03:28.666Z,97614.20
2019-04-16T08:04:35.400Z,97612.26
2019-04-16T08:05:40.938Z,97614.63
2019-04-16T08:06:46.267Z,97615.89
2019-04-16T08:07:49.750Z,97612.22
2019-04-16T08:08:56.805Z,97614.14
2019-04-16T08:10:02.138Z,97607.23
2019-04-16T08:11:04.584Z,97613.91
2019-04-16T08:12:22.049Z,97604.11
2019-04-16T08:13:15.628Z,97605.41
2019-04-16T08:14:19.383Z,97600.33
2019-04-16T08:15:23.110Z,97603.61
2019-04-16T08:16:26.747Z,97597.48
2019-04-16T08:17:31.219Z,97598.80
2019-04-16T08:18:36.496Z,97602.22
2019-04-16T08:19:40.202Z,97599.31
2019-04-16T08:20:43.849Z,97598.66
2019-04-16T08:21:47.817Z,97591.28
2019-04-16T08:22:53.133Z,97598.51
2019-04-16T08:23:58.415Z,97589.67
2019-04-16T08:25:05.779Z,97595.14
2019-04-16T08:26:12.980Z,97587.80
2019-04-16T08:27:19.103Z,97585.62
2019-04-16T08:28:20.257Z,97591.39
2019-04-16T08:29:26.558Z,97585.95
2019-04-16T08:30:34.595Z,97583.67
2019-04-16T08:31:36.724Z,97580.52
2019-04-16T08:32:40.419Z,97585.08
2019-04-16T08:33:44.062Z,97583.19
2019-04-16T08:34:47.700Z,97584.28
2019-04-16T08:35:51.285Z,97574.76
2019-04-16T08:36:54.984Z,97574.84
2019-04-16T08:37:58.962Z,97568.97
2019-04-16T08:39:06.655Z,97579.28
2019-04-16T08:40:12.239Z,97568.41
2019-04-16T08:41:20.077Z,97573.86
2019-04-16T08:42:24.217Z,97570.52
2019-04-16T08:43:26.736Z,97565.92
2019-04-16T08:44:35.231Z,97564.00
2019-04-16T08:45:39.179Z,97559.86
2019-04-16T08:46:41.338Z,97558.85
2019-04-16T08:47:46.081Z,97558.05
2019-04-16T08:48:52.490Z,97554.38
2019-04-16T08:49:55.194Z,97556.82
2019-04-16T08:50:59.216Z,97558.78
2019-04-16T08:52:02.985Z,97559.82
2019-04-16T08:53:06.607Z,97562.03
2019-04-16T08:54:10.326Z,97564.73
2019-04-16T08:55:14.380Z,97556.33
2019-04-16T08:56:17.927Z,97553.17
2019-04-16T08:57:21.511Z,97549.34
2019-04-16T08:58:25.192Z,97547.09
2019-04-16T08:59:28.885Z,97544.64
2019-04-16T09:00:32.991Z,97544.31
2019-04-16T09:01:36.647Z,97552.53
2019-04-16T09:02:40.303Z,97549.84
2019-04-16T09:03:44.039Z,97545.98
2019-04-16T09:04:47.665Z,97546.23
2019-04-16T09:05:51.349Z,97540.45
2019-04-16T09:06:54.998Z,97547.91
2019-04-16T09:08:11.442Z,97543.20
2019-04-16T09:09:25.427Z,97543.69
2019-04-16T09:10:30.944Z,97547.66
2019-04-16T09:11:36.405Z,97540.20
2019-04-16T09:12:43.508Z,97541.51
2019-04-16T09:13:49.799Z,97542.81
2019-04-16T09:14:56.034Z,97533.05
2019-04-16T09:15:58.802Z,97539.66
2019-04-16T09:17:04.054Z,97538.49
2019-04-16T09:18:12.331Z,97538.92
2019-04-16T09:19:17.595Z,97540.63
2019-04-16T09:20:23.422Z,97534.27
2019-04-16T09:21:28.164Z,97540.35
2019-04-16T09:22:32.386Z,97534.05
2019-04-16T09:23:36.020Z,97528.61
2019-04-16T09:24:50.307Z,97523.11
2019-04-16T09:26:12.465Z,97524.12
2019-04-16T09:27:05.700Z,97526.20
2019-04-16T09:28:24.425Z,97513.95
2019-04-16T09:29:17.880Z,97510.30
2019-04-16T09:30:39.291Z,97517.23
2019-04-16T09:31:59.638Z,97503.15
2019-04-16T09:33:04.937Z,97509.09
2019-04-16T09:34:16.210Z,97510.89
2019-04-16T09:35:24.035Z,97505.55
2019-04-16T09:36:38.542Z,97501.01
2019-04-16T09:37:49.838Z,97509.45
2019-04-16T09:39:03.977Z,97503.55
2019-04-16T09:40:21.623Z,97497.55
2019-04-16T09:41:29.788Z,97498.57
2019-04-16T09:42:34.227Z,97494.84
2019-04-16T09:43:42.351Z,97491.92
2019-04-16T09:44:45.980Z,97490.38
2019-04-16T09:45:49.641Z,97498.55
2019-04-16T09:46:53.290Z,97492.22
2019-04-16T09:47:56.940Z,97496.02
2019-04-16T09:49:00.566Z,97496.14
2019-04-16T09:50:09.672Z,97491.11
2019-04-16T09:51:10.725Z,97492.23
2019-04-16T09:52:14.380Z,97490.35
2019-04-16T09:53:18.031Z,97492.24
2019-04-16T09:54:21.665Z,97487.67
2019-04-16T09:55:25.321Z,97490.36
2019-04-16T09:56:30.197Z,97489.05
2019-04-16T09:57:34.105Z,97495.50
2019-04-16T09:58:42.351Z,97486.36
2019-04-16T09:59:47.706Z,97479.58
2019-04-16T10:00:52.190Z,97470.98
2019-04-16T10:01:57.516Z,97480.47
2019-04-16T10:03:02.797Z,97479.48
2019-04-16T10:04:08.095Z,97477.75
2019-04-16T10:05:11.834Z,97476.99
2019-04-16T10:06:15.466Z,97467.70
2019-04-16T10:07:19.379Z,97467.84
2019-04-16T10:08:22.963Z,97480.00
2019-04-16T10:09:26.731Z,97471.47
2019-04-16T10:10:30.326Z,97464.98
2019-04-16T10:11:35.745Z,97473.19
2019-04-16T10:12:39.382Z,97469.39
2019-04-16T10:13:43.193Z,97469.47
2019-04-16T10:14:46.887Z,97465.02
2019-04-16T10:15:50.511Z,97463.72
2019-04-16T10:16:54.165Z,97460.55
2019-04-16T10:17:58.612Z,97462.14
2019-04-16T10:19:07.875Z,97463.78
2019-04-16T10:20:08.541Z,97455.56
2019-04-16T10:21:12.209Z,97454.59
2019-04-16T10:22:16.253Z,97454.70
2019-04-16T10:23:21.574Z,97447.94
2019-04-16T10:24:43.242Z,97452.08
2019-04-16T10:25:47.020Z,97447.38
2019-04-16T10:26:52.273Z,97447.95
2019-04-16T10:27:57.528Z,97443.33
2019-04-16T10:29:05.896Z,97451.41
2019-04-16T10:30:10.799Z,97441.00
2019-04-16T10:31:16.058Z,97437.58
2019-04-16T10:32:19.723Z,97438.91
2019-04-16T10:33:23.421Z,97429.96
2019-04-16T10:34:27.104Z,97437.10
2019-04-16T10:35:30.758Z,97435.31
2019-04-16T10:36:37.142Z,97427.99
2019-04-16T10:37:39.730Z,97425.45
2019-04-16T10:38:51.865Z,97423.94
2019-04-16T10:39:57.124Z,97427.25
2019-04-16T10:41:08.414Z,97421.30
2019-04-16T10:42:30.297Z,97418.38
2019-04-16T10:43:51.678Z,97422.98
2019-04-16T10:45:05.942Z,97419.34
2019-04-16T10:46:11.281Z,97411.84
2019-04-16T10:47:22.586Z,97412.63
2019-04-16T10:48:44.317Z,97416.36
2019-04-16T10:49:55.172Z,97414.42
2019-04-16T10:51:06.570Z,97419.00
2019-04-16T10:52:26.888Z,97413.40
2019-04-16T10:53:48.302Z,97410.66
2019-04-16T10:55:09.305Z,97405.61
2019-04-16T10:56:20.742Z,97408.67
2019-04-16T10:57:22.772Z,97409.77
2019-04-16T10:58:33.700Z,97397.58
2019-04-16T10:59:38.987Z,97392.81
2019-04-16T11:00:48.431Z,97393.31
2019-04-16T11:01:53.762Z,97400.30
2019-04-16T11:03:05.302Z,97405.39
2019-04-16T11:04:10.960Z,97398.11
2019-04-16T11:05:19.241Z,97389.62
2019-04-16T11:06:23.400Z,97395.46
2019-04-16T11:07:34.901Z,97399.22
2019-04-16T11:08:38.697Z,97387.30
2019-04-16T11:09:42.503Z,97380.70
2019-04-16T11:10:46.245Z,97391.09
2019-04-16T11:11:50.208Z,97380.27
2019-04-16T11:12:53.931Z,97386.47
2019-04-16T11:14:00.164Z,97387.17
2019-04-16T11:15:03.369Z,97383.47
2019-04-16T11:16:14.602Z,97388.01
2019-04-16T11:17:19.900Z,97389.23
2019-04-16T11:18:23.542Z,97390.58
2019-04-16T11:19:27.266Z,97395.76
2019-04-16T11:20:30.963Z,97400.41
2019-04-16T11:21:34.617Z,97398.80
2019-04-16T11:22:38.265Z,97395.06
2019-04-16T11:23:41.941Z,97400.21
2019-04-16T11:24:45.605Z,97401.60
2019-04-16T11:25:49.226Z,97397.13
2019-04-16T11:26:52.931Z,97404.39
2019-04-16T11:27:56.602Z,97404.91
2019-04-16T11:29:00.262Z,97411.47
2019-04-16T11:30:07.136Z,97412.11
2019-04-16T11:31:12.361Z,97419.17
2019-04-16T11:32:17.670Z,97424.25
2019-04-16T11:33:21.311Z,97405.52
2019-04-16T11:34:24.966Z,97420.50
2019-04-16T11:35:29.113Z,97416.23
2019-04-16T11:36:32.711Z,97419.53
2019-04-16T11:37:36.614Z,97411.84
2019-04-16T11:38:41.625Z,97411.69
2019-04-16T11:39:45.300Z,97418.52
2019-04-16T11:40:48.954Z,97419.41
2019-04-16T11:41:52.596Z,97427.17
2019-04-16T11:42:56.277Z,97418.42
2019-04-16T11:44:14.253Z,97422.98
2019-04-16T11:45:06.905Z,97413.84
2019-04-16T11:46:10.724Z,97425.09
2019-04-16T11:47:14.381Z,97420.25
2019-04-16T11:48:17.956Z,97418.63
2019-04-16T11:49:21.585Z,97416.87
2019-04-16T11:50:25.620Z,97423.87
2019-04-16T11:51:29.305Z,97424.66
2019-04-16T11:52:32.975Z,97426.28
2019-04-16T11:53:36.622Z,97425.14
2019-04-16T11:54:46.834Z,97414.98
2019-04-16T11:55:47.966Z,97416.25
2019-04-16T11:56:51.593Z,97429.89
2019-04-16T11:57:57.895Z,97423.78
2019-04-16T11:59:01.195Z,97430.32
2019-04-16T12:00:09.412Z,97434.80
2019-04-16T12:01:15.367Z,97421.70
2019-04-16T12:02:20.642Z,97428.42
2019-04-16T12:03:25.899Z,97429.38
2019-04-16T12:04:32.793Z,97421.89
2019-04-16T12:05:46.968Z,97428.60
2019-04-16T12:06:58.106Z,97426.50
2019-04-16T12:08:18.497Z,97435.36
2019-04-16T12:09:39.755Z,97422.72
2019-04-16T12:11:04.176Z,97426.11
2019-04-16T12:12:12.251Z,97423.77
2019-04-16T12:13:21.142Z,97419.34
2019-04-16T12:14:35.495Z,97416.09
2019-04-16T12:15:57.127Z,97419.88
2019-04-16T12:17:15.090Z,97410.48
2019-04-16T12:18:20.430Z,97408.55
2019-04-16T12:19:25.779Z,97410.56
2019-04-16T12:20:46.173Z,97402.80
2019-04-16T12:22:00.596Z,97407.28
2019-04-16T12:23:22.015Z,97407.66
2019-04-16T12:24:36.477Z,97402.21
2019-04-16T12:25:44.487Z,97407.49
2019-04-16T12:26:49.730Z,97403.56
2019-04-16T12:28:12.593Z,97406.27
2019-04-16T12:29:41.821Z,97395.49
2019-04-16T12:31:05.891Z,97395.81
2019-04-16T12:32:11.471Z,97394.48
2019-04-16T12:33:22.916Z,97391.30
2019-04-16T12:34:44.683Z,97391.33
2019-04-16T12:35:56.019Z,97390.33
2019-04-16T12:37:16.522Z,97387.42
2019-04-16T12:38:38.228Z,97387.41
2019-04-16T12:39:43.570Z,97378.91
2019-04-16T12:40:52.096Z,97379.53
2019-04-16T12:42:00.006Z,97380.48
2019-04-16T12:43:07.922Z,97373.67
2019-04-16T12:44:44.633Z,97378.63
2019-04-16T12:45:54.544Z,97374.41
2019-04-16T12:47:18.173Z,97371.85
2019-04-16T12:48:23.520Z,97373.39
2019-04-16T12:49:44.715Z,97366.20
2019-04-16T12:51:08.480Z,97368.30
2019-04-16T12:52:17.572Z,97366.23
2019-04-16T12:53:25.676Z,97362.03
2019-04-16T12:54:37.913Z,97366.54
2019-04-16T12:56:05.400Z,97369.06
2019-04-16T12:57:14.938Z,97361.48
2019-04-16T12:58:20.005Z,97357.95
2019-04-16T12:59:31.080Z,97353.67
2019-04-16T13:00:42.536Z,97359.29
2019-04-16T13:01:54.013Z,97353.69
2019-04-16T13:02:59.271Z,97355.33
2019-04-16T13:04:10.751Z,97345.30